Terminal Aerodrome Forecast
Issued by NWS Denver/Boulder, CO

Home | Current Version | Previous Version | Text Only | Print | Product List | Glossary On
Versions: 1 2 3 4 5 6 7 8 9 10 11 12 13 14 15 16 17 18 19 20 21 22 23 24 25 26 27 28
000
FTUS45 KBOU 182057 AAC
TAFDEN
TAF AMD
KDEN 182057Z 1821/1924 14008KT P6SM FEW120 FEW220
     FM182200 11008KT P6SM FEW220
     FM190100 17012KT P6SM FEW220
     FM191300 22010KT P6SM FEW100 BKN200
     FM192100 17006KT P6SM FEW100 SCT220=

USA.gov is the U.S. government's official web portal to all federal, state and local government web resources and services.